North Billerica, Massachusetts
Current Conditions -  °F | °C
As of 3:56 PM on Friday 28 Nov 2014 (Local Time) from KBED Reporting Station
Overcast Overcast  
Wind Chill: 24°   Ceiling: 4600
Heat Index: 32°   Visibility: 10mi
Dew Point: 19°   Wind: 9mph
Humidity: 59%   Direction: 330°NNW
Pressure: 30.08"   Gusts: NA
Location:  42.58°N, 71.28°W
Report Text: KBED 282056Z 33008KT 10SM OVC046 00/M07 A3008 RMK AO2 SLP202 T00001072 53012
Loading
Personal Weather Stations






























Interactive Weather Map New forecast layout! Learn more

10-Day Weather Forecast

Advertisements
Track Severe Weather on mobile